Ticket #193: gps_log_1219573262.gpx

File gps_log_1219573262.gpx, 8.3 KB (added by Ed, 11 years ago)

Track file left <-> right [ startpoint <trkpt lat="52.915018333" lon="6.412456667"> endpoint <trkpt lat="52.916918333" lon="6.409841667"> ]

Line 
1<?xml version="1.0" encoding="UTF-8"?>
2<gpx
3 version="1.0"
4creator="GPSBabel - http://www.gpsbabel.org"
5xmlns:xsi="http://www.w3.org/2001/XMLSchema-instance"
6xmlns="http://www.topografix.com/GPX/1/0"
7xsi:schemaLocation="http://www.topografix.com/GPX/1/0 http://www.topografix.com/GPX/1/0/gpx.xsd">
8<time>2008-08-24T12:51:06Z</time>
9<bounds minlat="52.914000000" minlon="6.400000000" maxlat="52.917000000" maxlon="6.612801667"/>
10<trk>
11<trkseg>
12<trkpt lat="52.915018333" lon="6.412456667">
13  <ele>70.500000</ele>
14<time>2008-08-24T10:25:29.884Z</time>
15  <course>296.540009</course>
16  <speed>15.666667</speed>
17  <fix>3d</fix>
18  <sat>5</sat>
19  <hdop>3.100000</hdop>
20</trkpt>
21<trkpt lat="52.915078333" lon="6.412250000">
22  <ele>70.700000</ele>
23<time>2008-08-24T10:25:30.884Z</time>
24  <course>295.140015</course>
25  <speed>14.972222</speed>
26  <fix>3d</fix>
27  <sat>5</sat>
28  <hdop>3.100000</hdop>
29</trkpt>
30<trkpt lat="52.915136667" lon="6.412045000">
31  <ele>71.100000</ele>
32<time>2008-08-24T10:25:31.884Z</time>
33  <course>294.589996</course>
34  <speed>15.138889</speed>
35  <fix>3d</fix>
36  <sat>5</sat>
37  <hdop>3.100000</hdop>
38</trkpt>
39<trkpt lat="52.915196667" lon="6.411841667">
40  <ele>71.500000</ele>
41<time>2008-08-24T10:25:32.884Z</time>
42  <course>297.059998</course>
43  <speed>15.027778</speed>
44  <fix>3d</fix>
45  <sat>5</sat>
46  <hdop>3.100000</hdop>
47</trkpt>
48<trkpt lat="52.915258333" lon="6.411640000">
49  <ele>71.900000</ele>
50<time>2008-08-24T10:25:33.884Z</time>
51  <course>295.899994</course>
52  <speed>15.222222</speed>
53  <fix>3d</fix>
54  <sat>5</sat>
55  <hdop>3.100000</hdop>
56  <vdop>7.600000</vdop>
57  <pdop>8.200000</pdop>
58</trkpt>
59<trkpt lat="52.915318333" lon="6.411431667">
60  <ele>72.500000</ele>
61<time>2008-08-24T10:25:34.884Z</time>
62  <course>293.429993</course>
63  <speed>15.333333</speed>
64  <fix>3d</fix>
65  <sat>5</sat>
66  <hdop>3.100000</hdop>
67</trkpt>
68<trkpt lat="52.915375000" lon="6.411223333">
69  <ele>72.800000</ele>
70<time>2008-08-24T10:25:35.884Z</time>
71  <course>295.100006</course>
72  <speed>15.083333</speed>
73  <fix>3d</fix>
74  <sat>5</sat>
75  <hdop>3.100000</hdop>
76</trkpt>
77<trkpt lat="52.915435000" lon="6.411021667">
78  <ele>73.200000</ele>
79<time>2008-08-24T10:25:36.884Z</time>
80  <course>296.309998</course>
81  <speed>14.916667</speed>
82  <fix>3d</fix>
83  <sat>5</sat>
84  <hdop>3.100000</hdop>
85</trkpt>
86<trkpt lat="52.915496667" lon="6.410820000">
87  <ele>73.600000</ele>
88<time>2008-08-24T10:25:37.884Z</time>
89  <course>296.739990</course>
90  <speed>14.972222</speed>
91  <fix>3d</fix>
92  <sat>5</sat>
93  <hdop>3.100000</hdop>
94</trkpt>
95<trkpt lat="52.915558333" lon="6.410618333">
96  <ele>73.900000</ele>
97<time>2008-08-24T10:25:38.884Z</time>
98  <course>296.929993</course>
99  <speed>15.138889</speed>
100  <fix>3d</fix>
101  <sat>5</sat>
102  <hdop>3.100000</hdop>
103  <vdop>7.600000</vdop>
104  <pdop>8.200000</pdop>
105</trkpt>
106<trkpt lat="52.915616667" lon="6.410420000">
107  <ele>74.100000</ele>
108<time>2008-08-24T10:25:39.884Z</time>
109  <course>294.709991</course>
110  <speed>14.555555</speed>
111  <fix>3d</fix>
112  <sat>5</sat>
113  <hdop>3.100000</hdop>
114</trkpt>
115<trkpt lat="52.915671667" lon="6.410225000">
116  <ele>74.200000</ele>
117<time>2008-08-24T10:25:40.884Z</time>
118  <course>296.109985</course>
119  <speed>14.055555</speed>
120  <fix>3d</fix>
121  <sat>5</sat>
122  <hdop>3.100000</hdop>
123</trkpt>
124<trkpt lat="52.915728333" lon="6.410048333">
125  <ele>74.400000</ele>
126<time>2008-08-24T10:25:41.884Z</time>
127  <course>298.549988</course>
128  <speed>12.583333</speed>
129  <fix>3d</fix>
130  <sat>5</sat>
131  <hdop>3.100000</hdop>
132</trkpt>
133<trkpt lat="52.915781667" lon="6.409895000">
134  <ele>74.700000</ele>
135<time>2008-08-24T10:25:42.884Z</time>
136  <course>299.519989</course>
137  <speed>11.361111</speed>
138  <fix>3d</fix>
139  <sat>5</sat>
140  <hdop>3.100000</hdop>
141</trkpt>
142<trkpt lat="52.915830000" lon="6.409756667">
143  <ele>74.900000</ele>
144<time>2008-08-24T10:25:43.884Z</time>
145  <course>299.940002</course>
146  <speed>10.416667</speed>
147  <fix>3d</fix>
148  <sat>5</sat>
149  <hdop>3.100000</hdop>
150  <vdop>7.600000</vdop>
151  <pdop>8.200000</pdop>
152</trkpt>
153<trkpt lat="52.915876667" lon="6.409641667">
154  <ele>75.200000</ele>
155<time>2008-08-24T10:25:44.884Z</time>
156  <course>305.820007</course>
157  <speed>8.472222</speed>
158  <fix>3d</fix>
159  <sat>5</sat>
160  <hdop>3.100000</hdop>
161</trkpt>
162<trkpt lat="52.915926667" lon="6.409558333">
163  <ele>75.300000</ele>
164<time>2008-08-24T10:25:45.884Z</time>
165  <course>318.890015</course>
166  <speed>7.555555</speed>
167  <fix>3d</fix>
168  <sat>5</sat>
169  <hdop>3.100000</hdop>
170</trkpt>
171<trkpt lat="52.915986667" lon="6.409496667">
172  <ele>75.600000</ele>
173<time>2008-08-24T10:25:46.884Z</time>
174  <course>327.339996</course>
175  <speed>7.722222</speed>
176  <fix>3d</fix>
177  <sat>5</sat>
178  <hdop>3.100000</hdop>
179</trkpt>
180<trkpt lat="52.916046667" lon="6.409438333">
181  <ele>75.700000</ele>
182<time>2008-08-24T10:25:47.884Z</time>
183  <course>323.269989</course>
184  <speed>7.583333</speed>
185  <fix>3d</fix>
186  <sat>5</sat>
187  <hdop>3.100000</hdop>
188</trkpt>
189<trkpt lat="52.916108333" lon="6.409381667">
190  <ele>75.900000</ele>
191<time>2008-08-24T10:25:48.884Z</time>
192  <course>317.839996</course>
193  <speed>7.166667</speed>
194  <fix>3d</fix>
195  <sat>5</sat>
196  <hdop>3.100000</hdop>
197  <vdop>7.600000</vdop>
198  <pdop>8.200000</pdop>
199</trkpt>
200<trkpt lat="52.916160000" lon="6.409323333">
201  <ele>76.300000</ele>
202<time>2008-08-24T10:25:49.884Z</time>
203  <course>310.299988</course>
204  <speed>6.388889</speed>
205  <fix>3d</fix>
206  <sat>5</sat>
207  <hdop>3.100000</hdop>
208</trkpt>
209<trkpt lat="52.916201667" lon="6.409270000">
210  <ele>76.800000</ele>
211<time>2008-08-24T10:25:50.884Z</time>
212  <course>309.010010</course>
213  <speed>5.250000</speed>
214  <fix>3d</fix>
215  <sat>5</sat>
216  <hdop>3.100000</hdop>
217</trkpt>
218<trkpt lat="52.916231667" lon="6.409230000">
219  <ele>77.100000</ele>
220<time>2008-08-24T10:25:51.884Z</time>
221  <course>304.170013</course>
222  <speed>3.888889</speed>
223  <fix>3d</fix>
224  <sat>5</sat>
225  <hdop>3.100000</hdop>
226</trkpt>
227<trkpt lat="52.916256667" lon="6.409198333">
228  <ele>77.300000</ele>
229<time>2008-08-24T10:25:52.884Z</time>
230  <course>311.829987</course>
231  <speed>3.500000</speed>
232  <fix>3d</fix>
233  <sat>5</sat>
234  <hdop>3.100000</hdop>
235</trkpt>
236<trkpt lat="52.916285000" lon="6.409173333">
237  <ele>77.100000</ele>
238<time>2008-08-24T10:25:53.884Z</time>
239  <course>330.790009</course>
240  <speed>3.861111</speed>
241  <fix>3d</fix>
242  <sat>5</sat>
243  <hdop>3.100000</hdop>
244  <vdop>7.600000</vdop>
245  <pdop>8.200000</pdop>
246</trkpt>
247<trkpt lat="52.916320000" lon="6.409166667">
248  <ele>76.500000</ele>
249<time>2008-08-24T10:25:54.884Z</time>
250  <course>353.109985</course>
251  <speed>4.166667</speed>
252  <fix>3d</fix>
253  <sat>5</sat>
254  <hdop>3.100000</hdop>
255</trkpt>
256<trkpt lat="52.916361667" lon="6.409188333">
257  <ele>75.900000</ele>
258<time>2008-08-24T10:25:55.884Z</time>
259  <course>21.360001</course>
260  <speed>5.000000</speed>
261  <fix>3d</fix>
262  <sat>5</sat>
263  <hdop>3.100000</hdop>
264</trkpt>
265<trkpt lat="52.916413333" lon="6.409248333">
266  <ele>75.400000</ele>
267<time>2008-08-24T10:25:56.884Z</time>
268  <course>33.840000</course>
269  <speed>6.972222</speed>
270  <fix>3d</fix>
271  <sat>5</sat>
272  <hdop>3.100000</hdop>
273</trkpt>
274<trkpt lat="52.916475000" lon="6.409325000">
275  <ele>74.700000</ele>
276<time>2008-08-24T10:25:57.884Z</time>
277  <course>29.990000</course>
278  <speed>8.250000</speed>
279  <fix>3d</fix>
280  <sat>5</sat>
281  <hdop>3.100000</hdop>
282</trkpt>
283<trkpt lat="52.916548333" lon="6.409413333">
284  <ele>74.200000</ele>
285<time>2008-08-24T10:25:58.883Z</time>
286  <course>35.540001</course>
287  <speed>9.555555</speed>
288  <fix>3d</fix>
289  <sat>5</sat>
290  <hdop>3.100000</hdop>
291  <vdop>7.600000</vdop>
292  <pdop>8.200000</pdop>
293</trkpt>
294<trkpt lat="52.916628333" lon="6.409513333">
295  <ele>73.700000</ele>
296<time>2008-08-24T10:25:59.883Z</time>
297  <course>33.599998</course>
298  <speed>10.583333</speed>
299  <fix>3d</fix>
300  <sat>5</sat>
301  <hdop>3.100000</hdop>
302</trkpt>
303<trkpt lat="52.916716667" lon="6.409620000">
304  <ele>73.200000</ele>
305<time>2008-08-24T10:26:00.883Z</time>
306  <course>33.740002</course>
307  <speed>11.694445</speed>
308  <fix>3d</fix>
309  <sat>5</sat>
310  <hdop>3.100000</hdop>
311</trkpt>
312<trkpt lat="52.916813333" lon="6.409726667">
313  <ele>72.800000</ele>
314<time>2008-08-24T10:26:01.883Z</time>
315  <course>33.480000</course>
316  <speed>12.750000</speed>
317  <fix>3d</fix>
318  <sat>5</sat>
319  <hdop>3.100000</hdop>
320</trkpt>
321<trkpt lat="52.916918333" lon="6.409841667">
322  <ele>72.200000</ele>
323<time>2008-08-24T10:26:02.883Z</time>
324  <course>33.380001</course>
325  <speed>13.666667</speed>
326  <fix>3d</fix>
327  <sat>5</sat>
328  <hdop>3.100000</hdop>
329</trkpt>
330</trkseg>
331</trk>
332</gpx>